Time;durP1;ratioP1;P1;durP2;ratioP2;P2;SDS_P1;SDS_P2;PMS_P1;PMS_P2;Temp;Humidity;BMP_temperature;BMP_pressure;BME280_temperature;BME280_humidity;BME280_pressure;Samples;Min_cycle;Max_cycle;Signal;HPM_P1;HPM_P2
2022/05/06 00:01:42;;;;;;;16.47;14.77;;;20.00;56.80;;;;;;5049999;28;20478;-44
2022/05/06 00:04:07;;;;;;;21.47;15.87;;;20.00;56.80;;;;;;5046526;28;20458;-43
2022/05/06 00:06:33;;;;;;;16.37;14.27;;;19.90;56.90;;;;;;5047670;28;20447;-44
2022/05/06 00:08:59;;;;;;;20.73;15.73;;;19.90;56.90;;;;;;5046534;28;20216;-43
2022/05/06 00:11:25;;;;;;;22.47;15.63;;;19.90;57.00;;;;;;5048081;28;20458;-44
2022/05/06 00:13:52;;;;;;;20.10;13.87;;;19.90;57.00;;;;;;5050026;28;20192;-43
2022/05/06 00:16:22;;;;;;;20.07;15.10;;;19.90;57.10;;;;;;5049621;28;20490;-43
2022/05/06 00:18:48;;;;;;;18.27;16.30;;;19.90;57.10;;;;;;5048744;28;20530;-43
2022/05/06 00:21:13;;;;;;;19.77;16.07;;;19.90;57.20;;;;;;5046425;28;21065;-44
2022/05/06 00:23:40;;;;;;;16.43;14.80;;;19.90;57.10;;;;;;5045302;28;20196;-43
2022/05/06 00:26:05;;;;;;;17.40;15.43;;;19.90;57.10;;;;;;5049318;28;20199;-43
2022/05/06 00:28:31;;;;;;;18.77;15.30;;;19.80;57.10;;;;;;5048118;28;20446;-43
2022/05/06 00:30:57;;;;;;;19.77;16.07;;;19.80;57.20;;;;;;5043851;28;20188;-43
2022/05/06 00:33:26;;;;;;;17.80;15.27;;;19.80;57.20;;;;;;5044701;28;20560;-43
2022/05/06 00:35:56;;;;;;;20.40;15.10;;;19.80;57.20;;;;;;5049137;28;20454;-43
2022/05/06 00:38:22;;;;;;;22.97;15.17;;;19.80;57.20;;;;;;5043773;28;20453;-43
2022/05/06 00:40:48;;;;;;;18.30;14.57;;;19.80;57.20;;;;;;5049400;28;20519;-43
2022/05/06 00:43:14;;;;;;;18.57;15.17;;;19.80;57.20;;;;;;5048484;28;20466;-43
2022/05/06 00:45:53;;;;;;;17.13;15.13;;;19.80;57.20;;;;;;5049265;28;20204;-43
2022/05/06 00:48:30;;;;;;;19.40;15.47;;;19.80;57.30;;;;;;5040971;28;20196;-43
2022/05/06 00:50:58;;;;;;;20.00;16.03;;;19.80;57.30;;;;;;5047740;28;20449;-43
2022/05/06 00:53:24;;;;;;;18.03;15.77;;;19.80;57.30;;;;;;5048540;28;20805;-43
2022/05/06 00:55:51;;;;;;;16.63;14.93;;;19.70;57.20;;;;;;5048905;28;20471;-43
2022/05/06 00:58:18;;;;;;;22.07;15.83;;;19.70;57.30;;;;;;5049284;28;20184;-43
2022/05/06 01:00:44;;;;;;;18.30;16.23;;;19.70;57.40;;;;;;5047987;28;20486;-41
2022/05/06 01:03:11;;;;;;;20.27;15.53;;;19.60;57.50;;;;;;5049575;28;20489;-41
2022/05/06 01:05:38;;;;;;;18.90;16.10;;;19.60;57.50;;;;;;5068209;28;20191;-44
2022/05/06 01:08:04;;;;;;;19.40;16.63;;;19.60;57.50;;;;;;5055192;28;21002;-42
2022/05/06 01:10:30;;;;;;;21.10;15.77;;;19.60;57.50;;;;;;5048938;28;20447;-42
2022/05/06 01:12:56;;;;;;;17.83;15.80;;;19.60;57.70;;;;;;5047974;28;20473;-42
2022/05/06 01:15:22;;;;;;;19.47;17.47;;;19.60;57.70;;;;;;5049167;28;20227;-43
2022/05/06 01:17:49;;;;;;;21.40;16.73;;;19.60;57.60;;;;;;5048081;28;20207;-42
2022/05/06 01:20:16;;;;;;;23.20;16.20;;;19.60;57.60;;;;;;5047360;28;20485;-42
2022/05/06 01:23:00;;;;;;;19.87;16.97;;;19.60;57.70;;;;;;5048023;28;20489;-42
2022/05/06 01:25:27;;;;;;;19.03;16.67;;;19.60;57.50;;;;;;5045051;28;20568;-42
2022/05/06 01:27:55;;;;;;;20.57;16.70;;;19.50;57.50;;;;;;5049207;28;20443;-42
2022/05/06 01:30:29;;;;;;;19.50;16.00;;;19.50;57.50;;;;;;5048215;28;20450;-42
2022/05/06 01:32:56;;;;;;;19.73;17.07;;;19.50;57.50;;;;;;5044952;28;20477;-42
2022/05/06 01:35:24;;;;;;;18.80;16.20;;;19.50;57.60;;;;;;5047804;28;20478;-43
2022/05/06 01:37:53;;;;;;;20.70;16.23;;;19.40;57.60;;;;;;5045654;28;20447;-43
2022/05/06 01:40:20;;;;;;;22.70;17.57;;;19.40;57.70;;;;;;5050456;28;20483;-42
2022/05/06 01:42:48;;;;;;;21.57;18.90;;;19.30;57.90;;;;;;5048776;28;20439;-42
2022/05/06 01:45:16;;;;;;;20.63;16.53;;;19.30;58.00;;;;;;5045762;28;20435;-42
2022/05/06 01:47:42;;;;;;;19.03;15.90;;;19.30;58.00;;;;;;5045327;28;20435;-42
2022/05/06 01:50:10;;;;;;;19.20;17.03;;;19.30;58.00;;;;;;5049348;28;20431;-44
2022/05/06 01:52:37;;;;;;;21.40;18.37;;;19.30;57.90;;;;;;5046748;28;20560;-42
2022/05/06 01:55:05;;;;;;;19.20;16.37;;;19.40;57.90;;;;;;5046643;28;20490;-42
2022/05/06 01:57:31;;;;;;;19.03;16.10;;;19.40;57.90;;;;;;5048896;28;20559;-42
2022/05/06 01:59:56;;;;;;;18.93;16.37;;;19.40;57.90;;;;;;5046759;28;20973;-42
2022/05/06 02:02:22;;;;;;;20.87;16.90;;;19.40;57.90;;;;;;5050402;28;20204;-42
2022/05/06 02:07:32;;;;;;;19.23;17.33;;;19.40;57.80;;;;;;5047783;28;20319;-42
2022/05/06 02:09:57;;;;;;;21.37;17.83;;;19.50;57.80;;;;;;5045983;28;20601;-44
2022/05/06 02:12:23;;;;;;;21.63;17.33;;;19.50;57.70;;;;;;5047357;28;20250;-42
2022/05/06 02:14:48;;;;;;;20.17;18.00;;;19.50;57.60;;;;;;5046143;28;20200;-41
2022/05/06 02:17:14;;;;;;;19.23;15.70;;;19.60;57.60;;;;;;5047430;28;20674;-41
2022/05/06 02:19:40;;;;;;;20.23;18.07;;;19.60;57.50;;;;;;5047944;28;20228;-41
2022/05/06 02:22:06;;;;;;;21.23;18.30;;;19.60;57.50;;;;;;5052125;28;20200;-41
2022/05/06 02:24:32;;;;;;;23.60;17.37;;;19.60;57.30;;;;;;5044590;28;20453;-41
2022/05/06 02:26:57;;;;;;;20.20;17.07;;;19.60;57.30;;;;;;5047539;28;20561;-41
2022/05/06 02:29:23;;;;;;;18.40;15.47;;;19.60;57.20;;;;;;5046511;28;20200;-41
2022/05/06 02:34:32;;;;;;;22.30;16.00;;;19.60;57.20;;;;;;5043188;28;20204;-41
2022/05/06 02:36:58;;;;;;;17.83;15.93;;;19.50;57.30;;;;;;5047132;28;20840;-41
2022/05/06 02:39:23;;;;;;;23.03;18.00;;;19.50;57.50;;;;;;5046712;28;20216;-42
2022/05/06 02:41:49;;;;;;;21.63;16.30;;;19.50;57.50;;;;;;5044060;28;20189;-41
2022/05/06 02:44:15;;;;;;;18.27;16.37;;;19.50;57.40;;;;;;5047680;28;20207;-41
2022/05/06 02:46:40;;;;;;;20.90;16.93;;;19.50;57.50;;;;;;5050701;28;20208;-42
2022/05/06 02:49:06;;;;;;;18.77;16.73;;;19.40;57.50;;;;;;5047974;28;20188;-42
2022/05/06 02:51:32;;;;;;;21.67;16.80;;;19.40;57.60;;;;;;5050250;28;20189;-42
2022/05/06 02:53:58;;;;;;;20.13;15.60;;;19.30;57.60;;;;;;5046625;28;20224;-42
2022/05/06 02:56:24;;;;;;;17.53;15.87;;;19.20;57.80;;;;;;5048395;28;20443;-41
2022/05/06 02:58:50;;;;;;;22.27;17.40;;;19.20;57.90;;;;;;5050147;28;20181;-41
2022/05/06 03:01:16;;;;;;;21.40;16.10;;;19.20;58.00;;;;;;5049605;28;20544;-41
2022/05/06 03:03:42;;;;;;;22.40;18.27;;;19.20;58.10;;;;;;5050476;28;20648;-42
2022/05/06 03:06:08;;;;;;;18.17;16.37;;;19.10;58.10;;;;;;5051397;28;20189;-42
2022/05/06 03:08:33;;;;;;;19.40;15.70;;;19.10;58.70;;;;;;5051304;28;20932;-42
2022/05/06 03:10:59;;;;;;;22.30;17.13;;;19.00;58.20;;;;;;5057427;28;20237;-42
2022/05/06 03:13:25;;;;;;;20.60;17.20;;;19.00;58.30;;;;;;5049227;28;20201;-41
2022/05/06 03:15:52;;;;;;;21.17;15.77;;;19.00;58.30;;;;;;5049512;28;21000;-43
2022/05/06 03:18:17;;;;;;;21.30;17.57;;;19.00;58.30;;;;;;5050239;28;20188;-44
2022/05/06 03:20:44;;;;;;;25.27;17.60;;;19.00;58.40;;;;;;5057880;28;21639;-42
2022/05/06 03:23:10;;;;;;;17.63;15.30;;;18.90;58.30;;;;;;5051364;28;20200;-42
2022/05/06 03:25:35;;;;;;;23.13;17.40;;;18.90;58.40;;;;;;5050715;28;21097;-42
2022/05/06 03:28:07;;;;;;;25.20;17.33;;;18.90;58.60;;;;;;5047738;28;20200;-41
2022/05/06 03:30:39;;;;;;;21.13;16.83;;;18.90;58.60;;;;;;5049385;28;20197;-42
2022/05/06 03:33:08;;;;;;;21.00;16.07;;;18.90;58.60;;;;;;5049104;28;20981;-42
2022/05/06 03:35:34;;;;;;;20.20;16.93;;;18.90;58.60;;;;;;5050042;28;20453;-42
2022/05/06 03:38:00;;;;;;;18.17;15.80;;;18.90;58.70;;;;;;5049712;28;20447;-43
2022/05/06 03:40:26;;;;;;;17.40;15.00;;;18.80;58.70;;;;;;5050607;28;20490;-43
2022/05/06 03:42:51;;;;;;;17.37;15.50;;;18.80;58.80;;;;;;5052417;28;20200;-42
2022/05/06 03:45:17;;;;;;;16.57;14.87;;;18.80;58.80;;;;;;5049104;28;20187;-42
2022/05/06 03:47:43;;;;;;;18.37;15.73;;;18.80;58.80;;;;;;5047078;28;20284;-42
2022/05/06 03:52:54;;;;;;;16.33;14.73;;;18.80;58.80;;;;;;5043242;28;20203;-44
2022/05/06 03:55:19;;;;;;;17.60;15.77;;;18.80;58.80;;;;;;5048182;28;20475;-42
2022/05/06 03:57:45;;;;;;;17.13;15.33;;;18.80;58.80;;;;;;5050813;28;20280;-43
2022/05/06 04:00:12;;;;;;;18.80;16.00;;;18.70;58.80;;;;;;5046234;28;20228;-43
2022/05/06 04:02:38;;;;;;;19.40;14.50;;;18.70;58.90;;;;;;5046790;28;20449;-42
2022/05/06 04:05:05;;;;;;;17.07;15.23;;;18.70;58.90;;;;;;5044676;28;20435;-42
2022/05/06 04:07:31;;;;;;;16.90;15.00;;;18.70;58.90;;;;;;5047814;28;20181;-42
2022/05/06 04:09:57;;;;;;;16.80;14.70;;;18.70;58.90;;;;;;5047027;28;20443;-43
2022/05/06 04:12:23;;;;;;;21.07;15.20;;;18.70;58.90;;;;;;5049296;28;20447;-42
2022/05/06 04:14:52;;;;;;;16.77;14.40;;;18.70;58.90;;;;;;5047147;28;20291;-42
2022/05/06 04:17:20;;;;;;;22.30;14.60;;;18.70;58.90;;;;;;5048481;28;20438;-43
2022/05/06 04:25:15;;;;;;;15.80;12.90;;;18.70;59.00;;;;;;5048312;28;20462;-42
2022/05/06 04:27:42;;;;;;;15.37;12.47;;;18.70;59.00;;;;;;5048445;28;20439;-42
2022/05/06 04:30:08;;;;;;;16.67;13.47;;;18.70;59.10;;;;;;5046544;28;20555;-42
2022/05/06 04:32:34;;;;;;;16.70;12.63;;;18.70;59.10;;;;;;5045009;28;20454;-42
2022/05/06 04:35:00;;;;;;;14.37;12.80;;;18.70;59.00;;;;;;5047165;28;20435;-42
2022/05/06 04:37:26;;;;;;;14.00;12.43;;;18.70;58.90;;;;;;5055889;28;20249;-42
2022/05/06 04:39:52;;;;;;;14.17;12.60;;;18.70;58.90;;;;;;5050909;28;20486;-42
2022/05/06 04:42:18;;;;;;;14.57;12.77;;;18.70;59.00;;;;;;5048170;28;20559;-42
2022/05/06 04:44:43;;;;;;;14.47;12.10;;;18.70;59.00;;;;;;5046264;28;20196;-43
2022/05/06 04:47:09;;;;;;;17.30;12.63;;;18.70;58.90;;;;;;5046400;28;20858;-42
2022/05/06 04:49:35;;;;;;;14.13;12.77;;;18.80;59.00;;;;;;5046353;28;20258;-42
2022/05/06 04:52:00;;;;;;;15.60;13.07;;;18.80;59.00;;;;;;5046410;28;20290;-42
2022/05/06 04:54:26;;;;;;;13.87;11.87;;;18.80;59.10;;;;;;5046508;28;20228;-42
2022/05/06 04:56:53;;;;;;;14.17;12.60;;;18.80;59.10;;;;;;5048864;28;20196;-42
2022/05/06 04:59:22;;;;;;;13.77;12.17;;;18.70;59.10;;;;;;5048287;28;20449;-42
2022/05/06 05:01:47;;;;;;;17.03;11.67;;;18.70;59.10;;;;;;5048972;28;20449;-42
2022/05/06 05:04:13;;;;;;;14.07;12.63;;;18.70;59.50;;;;;;5046630;28;20918;-42
2022/05/06 05:06:39;;;;;;;11.67;10.60;;;18.60;59.80;;;;;;5048145;28;20887;-42
2022/05/06 05:09:04;;;;;;;12.50;11.20;;;18.50;59.90;;;;;;5045949;28;20249;-43
2022/05/06 05:11:30;;;;;;;12.10;10.90;;;18.50;60.30;;;;;;5046848;28;20737;-42
2022/05/06 05:13:55;;;;;;;12.83;11.63;;;18.50;60.80;;;;;;5048636;28;20275;-42
2022/05/06 05:16:21;;;;;;;13.13;11.80;;;18.50;61.00;;;;;;5047056;28;20196;-42
2022/05/06 05:18:47;;;;;;;11.70;10.50;;;18.50;61.00;;;;;;5046966;28;20195;-43
2022/05/06 05:21:12;;;;;;;12.93;11.53;;;18.50;62.00;;;;;;5045239;28;20227;-42
2022/05/06 05:23:38;;;;;;;11.60;10.50;;;18.50;62.00;;;;;;5044797;28;20185;-42
2022/05/06 05:26:03;;;;;;;13.23;11.03;;;18.60;61.40;;;;;;5048526;28;20196;-44
2022/05/06 05:28:29;;;;;;;14.33;10.97;;;18.70;60.70;;;;;;5045800;28;20564;-42
2022/05/06 05:30:54;;;;;;;10.90;9.80;;;18.70;60.10;;;;;;5045628;28;20254;-44
2022/05/06 05:33:20;;;;;;;12.47;10.53;;;18.70;60.10;;;;;;5048712;28;20253;-42
2022/05/06 05:35:46;;;;;;;11.93;10.73;;;18.70;60.30;;;;;;5043520;28;20192;-43
2022/05/06 05:38:11;;;;;;;10.27;9.07;;;18.80;60.40;;;;;;5048092;28;20275;-43
2022/05/06 05:40:37;;;;;;;12.40;11.30;;;18.80;59.90;;;;;;5045140;28;20224;-44
2022/05/06 05:43:03;;;;;;;11.63;10.50;;;18.90;59.70;;;;;;5046717;28;20200;-42
2022/05/06 05:48:22;;;;;;;11.10;10.10;;;18.90;59.70;;;;;;5045362;28;20474;-43
2022/05/06 05:50:49;;;;;;;10.80;9.63;;;18.90;59.80;;;;;;5047076;28;20439;-43
2022/05/06 05:53:15;;;;;;;12.33;9.20;;;18.90;59.70;;;;;;5047133;28;20442;-43
2022/05/06 05:55:40;;;;;;;11.17;8.50;;;18.80;60.10;;;;;;5045589;28;20596;-43
2022/05/06 05:58:06;;;;;;;11.70;9.80;;;18.90;60.00;;;;;;5048630;28;20279;-43
2022/05/06 06:00:32;;;;;;;12.03;9.60;;;19.10;59.70;;;;;;5047144;28;20224;-43
2022/05/06 06:02:59;;;;;;;12.30;10.40;;;19.20;59.20;;;;;;5055807;28;20803;-43
2022/05/06 06:05:24;;;;;;;10.70;9.60;;;19.30;58.60;;;;;;5048271;28;20189;-43
2022/05/06 06:07:50;;;;;;;14.10;9.67;;;19.30;58.40;;;;;;5047989;28;20450;-44
2022/05/06 06:10:16;;;;;;;9.73;8.83;;;19.30;58.30;;;;;;5057230;28;20214;-44
2022/05/06 06:12:41;;;;;;;14.13;9.87;;;19.30;58.20;;;;;;5047667;28;20253;-44
2022/05/06 06:15:07;;;;;;;11.90;10.60;;;19.30;58.00;;;;;;5048081;28;20196;-43
2022/05/06 06:17:33;;;;;;;12.00;9.80;;;19.30;58.20;;;;;;5049042;28;20192;-43
2022/05/06 06:19:59;;;;;;;9.80;8.80;;;19.20;58.30;;;;;;5048375;28;20506;-43
2022/05/06 06:22:24;;;;;;;12.53;11.23;;;19.10;58.40;;;;;;5046314;28;20321;-43
2022/05/06 06:24:50;;;;;;;10.00;9.10;;;19.00;58.60;;;;;;5050953;28;20196;-43
2022/05/06 06:27:15;;;;;;;11.30;10.13;;;18.90;58.70;;;;;;5047418;28;20192;-43
2022/05/06 06:29:41;;;;;;;10.83;9.70;;;19.00;58.80;;;;;;5050930;28;20222;-44
2022/05/06 06:32:07;;;;;;;9.03;8.00;;;18.90;58.90;;;;;;5049669;28;20599;-43
2022/05/06 06:34:33;;;;;;;9.17;8.20;;;19.00;58.90;;;;;;5050652;28;20196;-43
2022/05/06 06:36:58;;;;;;;12.57;9.57;;;19.10;58.80;;;;;;5033836;28;20972;-43
2022/05/06 06:39:24;;;;;;;12.70;8.73;;;19.20;58.40;;;;;;5062841;28;20211;-42
2022/05/06 06:41:50;;;;;;;9.97;8.97;;;19.30;58.00;;;;;;5045902;28;20193;-42
2022/05/06 06:44:15;;;;;;;16.93;8.50;;;19.40;57.80;;;;;;5048749;28;20253;-42
2022/05/06 06:46:41;;;;;;;11.20;9.30;;;19.40;57.60;;;;;;5045757;28;20189;-41
2022/05/06 06:49:06;;;;;;;11.63;9.57;;;19.40;57.40;;;;;;5056463;28;20686;-42
2022/05/06 06:51:32;;;;;;;11.67;9.90;;;19.40;57.30;;;;;;5046559;28;20969;-43
2022/05/06 06:53:57;;;;;;;9.83;8.83;;;19.40;57.30;;;;;;5048315;28;20331;-42
2022/05/06 06:56:23;;;;;;;9.73;8.80;;;19.30;57.30;;;;;;5046916;28;20204;-41
2022/05/06 06:58:49;;;;;;;10.93;9.83;;;19.30;57.50;;;;;;5041367;28;20807;-41
2022/05/06 07:01:15;;;;;;;11.37;8.73;;;19.30;57.70;;;;;;5040435;28;20231;-42
2022/05/06 07:03:41;;;;;;;9.50;8.70;;;19.40;57.50;;;;;;5043323;28;20525;-42
2022/05/06 07:11:53;;;;;;;12.70;8.80;;;19.40;57.20;;;;;;5048442;28;20509;-42
2022/05/06 07:14:21;;;;;;;9.37;8.57;;;19.40;57.30;;;;;;5049347;28;20435;-42
2022/05/06 07:16:48;;;;;;;11.43;8.80;;;19.50;57.40;;;;;;5049077;28;20447;-42
2022/05/06 07:19:13;;;;;;;10.90;9.23;;;19.40;57.10;;;;;;5049394;28;20453;-42
2022/05/06 07:21:39;;;;;;;11.60;9.63;;;19.40;57.20;;;;;;5047810;28;20991;-42
2022/05/06 07:24:05;;;;;;;12.60;9.30;;;19.40;57.20;;;;;;5035188;28;20666;-42
2022/05/06 07:26:31;;;;;;;12.77;9.10;;;19.40;57.30;;;;;;5051548;28;20614;-41
2022/05/06 07:28:57;;;;;;;10.90;8.53;;;19.40;57.50;;;;;;5054804;28;20486;-41
2022/05/06 07:31:22;;;;;;;10.80;9.67;;;19.40;57.50;;;;;;5056124;28;20239;-42
2022/05/06 07:33:48;;;;;;;10.17;8.93;;;19.30;57.70;;;;;;5054439;28;20193;-41
2022/05/06 07:36:14;;;;;;;11.13;9.37;;;19.30;57.80;;;;;;5049776;28;20656;-42
2022/05/06 07:38:39;;;;;;;10.07;8.70;;;19.30;58.00;;;;;;5049184;28;20547;-41
2022/05/06 07:41:05;;;;;;;10.30;9.30;;;19.30;57.70;;;;;;5050541;28;20254;-41
2022/05/06 07:43:30;;;;;;;10.50;9.43;;;19.20;57.70;;;;;;5054537;28;20573;-41
2022/05/06 07:45:57;;;;;;;10.23;9.33;;;19.20;57.80;;;;;;5044464;28;20537;-41
2022/05/06 07:48:22;;;;;;;13.43;8.17;;;19.10;57.80;;;;;;5046562;28;20200;-41
2022/05/06 07:50:48;;;;;;;13.30;9.10;;;19.00;57.90;;;;;;5049527;28;20447;-41
2022/05/06 07:53:15;;;;;;;9.60;8.23;;;19.00;57.90;;;;;;5047854;28;20192;-41
2022/05/06 07:55:44;;;;;;;11.10;8.80;;;19.10;58.00;;;;;;5049242;28;20739;-41
2022/05/06 07:58:10;;;;;;;11.70;8.60;;;19.20;57.70;;;;;;5051009;28;20429;-41
2022/05/06 08:00:36;;;;;;;9.00;8.27;;;19.20;57.50;;;;;;5050727;28;20487;-41
2022/05/06 08:05:47;;;;;;;12.60;8.80;;;19.30;57.30;;;;;;5056092;28;20489;-41
2022/05/06 08:08:14;;;;;;;9.87;8.50;;;19.30;57.10;;;;;;5062407;28;20472;-41
2022/05/06 08:10:40;;;;;;;9.57;8.63;;;19.30;57.00;;;;;;5060702;28;20454;-41
2022/05/06 08:13:06;;;;;;;10.00;8.00;;;19.30;56.90;;;;;;5046917;28;20995;-41
2022/05/06 08:15:32;;;;;;;10.60;9.30;;;19.40;57.00;;;;;;5047610;28;20471;-41
2022/05/06 08:17:58;;;;;;;11.23;9.70;;;19.50;56.70;;;;;;5048193;28;20435;-41
2022/05/06 08:20:23;;;;;;;9.13;7.10;;;19.60;56.60;;;;;;5050313;28;20544;-41
2022/05/06 08:22:49;;;;;;;10.00;7.80;;;19.60;56.50;;;;;;5049008;28;20717;-41
2022/05/06 08:25:14;;;;;;;8.33;7.50;;;19.70;56.50;;;;;;5048375;28;20718;-41
2022/05/06 08:27:44;;;;;;;9.10;8.30;;;19.80;56.20;;;;;;5064006;28;20196;-41
2022/05/06 08:30:12;;;;;;;11.87;9.00;;;19.80;55.90;;;;;;5062314;28;20235;-41
2022/05/06 08:32:39;;;;;;;9.30;8.40;;;19.80;55.70;;;;;;5048476;28;20435;-41
2022/05/06 08:35:05;;;;;;;10.87;8.67;;;19.80;55.60;;;;;;5051742;28;20452;-41
2022/05/06 08:37:45;;;;;;;8.77;7.90;;;19.80;55.80;;;;;;5050234;28;20427;-41
2022/05/06 08:40:22;;;;;;;11.40;8.90;;;19.90;55.80;;;;;;5049661;28;20486;-41
2022/05/06 08:42:48;;;;;;;11.13;8.47;;;19.90;56.00;;;;;;5046745;28;20443;-42
2022/05/06 08:50:51;;;;;;;9.00;8.20;;;19.90;56.10;;;;;;5047164;28;20449;-42
2022/05/06 08:53:17;;;;;;;13.30;9.87;;;19.90;56.30;;;;;;5045414;28;20853;-42
2022/05/06 08:55:43;;;;;;;9.50;8.50;;;19.80;56.50;;;;;;5046642;28;20479;-43
2022/05/06 08:58:09;;;;;;;9.53;8.63;;;19.80;56.60;;;;;;5041900;28;20454;-44
2022/05/06 09:00:35;;;;;;;11.00;9.90;;;19.80;56.30;;;;;;5054032;28;20627;-43
2022/05/06 09:03:01;;;;;;;12.03;9.23;;;19.90;56.30;;;;;;5044073;28;20446;-43
2022/05/06 09:05:27;;;;;;;8.90;7.97;;;19.80;56.00;;;;;;5040061;28;20439;-44
2022/05/06 09:08:02;;;;;;;9.50;8.60;;;19.80;56.10;;;;;;5048607;28;20196;-43
2022/05/06 09:10:28;;;;;;;10.87;9.80;;;19.80;56.90;;;;;;5045655;28;20814;-43
2022/05/06 09:12:59;;;;;;;9.97;8.30;;;19.90;56.40;;;;;;5042327;28;20801;-43
2022/05/06 09:18:17;;;;;;;11.33;9.23;;;20.00;55.80;;;;;;5043349;28;20460;-43
2022/05/06 09:20:42;;;;;;;9.20;8.37;;;20.10;55.60;;;;;;5038936;28;20541;-43
2022/05/06 09:23:25;;;;;;;9.97;8.97;;;20.00;55.20;;;;;;5041474;28;20443;-43
2022/05/06 09:25:53;;;;;;;10.47;8.40;;;20.00;55.50;;;;;;5046124;28;20283;-45
2022/05/06 09:28:30;;;;;;;9.30;7.67;;;19.90;55.90;;;;;;5048517;28;20794;-43
2022/05/06 09:31:06;;;;;;;8.80;7.93;;;20.10;56.00;;;;;;5052766;28;20442;-43
2022/05/06 09:33:37;;;;;;;9.20;8.40;;;20.10;55.50;;;;;;5040604;28;21194;-44
2022/05/06 09:36:31;;;;;;;9.63;8.63;;;20.10;56.10;;;;;;5037721;28;20451;-43
2022/05/06 09:39:00;;;;;;;8.77;7.97;;;20.20;55.30;;;;;;5044198;28;20539;-42
2022/05/06 09:41:26;;;;;;;8.90;8.00;;;20.20;55.20;;;;;;5063399;28;20871;-42
2022/05/06 09:44:03;;;;;;;8.63;7.50;;;20.30;55.20;;;;;;5045681;28;20454;-43
2022/05/06 09:46:29;;;;;;;10.73;7.67;;;20.40;54.30;;;;;;5040659;28;20206;-43
2022/05/06 09:48:56;;;;;;;8.70;7.13;;;20.20;54.10;;;;;;5051190;28;20526;-42
2022/05/06 09:51:33;;;;;;;10.87;8.30;;;20.20;54.10;;;;;;5047338;28;20271;-43
2022/05/06 09:54:00;;;;;;;9.20;8.00;;;20.40;54.20;;;;;;5045481;28;20936;-42
2022/05/06 09:56:27;;;;;;;11.70;8.50;;;20.50;54.10;;;;;;5046371;28;20855;-43
2022/05/06 09:58:54;;;;;;;8.27;7.47;;;20.50;53.90;;;;;;5051579;28;20562;-42
2022/05/06 10:01:21;;;;;;;8.50;7.73;;;20.70;54.20;;;;;;5049362;28;20482;-42
2022/05/06 10:03:47;;;;;;;10.97;7.33;;;20.80;53.50;;;;;;5049625;28;20793;-42
2022/05/06 10:06:13;;;;;;;8.90;8.00;;;21.00;53.10;;;;;;5048770;28;20485;-42
2022/05/06 10:08:46;;;;;;;10.30;7.70;;;21.00;52.90;;;;;;5049355;28;20478;-42
2022/05/06 10:11:14;;;;;;;9.73;8.67;;;21.10;52.40;;;;;;5048593;28;20439;-42
2022/05/06 10:13:44;;;;;;;14.40;8.17;;;21.20;52.70;;;;;;5050581;28;20439;-42
2022/05/06 10:16:11;;;;;;;9.90;7.83;;;21.30;52.70;;;;;;5051205;28;20434;-42
2022/05/06 10:18:39;;;;;;;8.47;7.40;;;21.40;53.30;;;;;;5051135;28;20431;-42
2022/05/06 10:21:08;;;;;;;9.17;8.20;;;21.40;52.70;;;;;;5048156;28;20585;-42
2022/05/06 10:23:50;;;;;;;8.70;7.50;;;21.50;52.20;;;;;;5049477;28;20457;-42
2022/05/06 10:26:42;;;;;;;7.90;7.20;;;21.70;51.80;;;;;;5049113;28;20473;-42
2022/05/06 10:32:53;;;;;;;14.87;7.37;;;21.90;51.90;;;;;;5047713;28;20489;-43
2022/05/06 10:35:20;;;;;;;8.93;7.70;;;21.90;50.70;;;;;;5049526;28;20447;-43
2022/05/06 10:37:45;;;;;;;10.33;8.17;;;21.70;52.10;;;;;;5049400;28;20485;-43
2022/05/06 10:40:23;;;;;;;7.90;7.10;;;21.90;52.00;;;;;;5048447;28;20524;-43
2022/05/06 10:42:49;;;;;;;8.57;7.70;;;22.30;51.70;;;;;;5048632;28;20192;-43
2022/05/06 10:45:30;;;;;;;7.87;6.73;;;22.50;51.10;;;;;;5049451;28;20480;-43
2022/05/06 10:47:56;;;;;;;218.07;23.73;;;22.70;50.90;;;;;;5050125;28;20504;-43
2022/05/06 10:50:25;;;;;;;42.07;9.63;;;22.90;50.70;;;;;;5050208;28;21064;-44
2022/05/06 12:03:03;;;;;;;6.57;5.97;;;21.00;47.30;;;;;;5077466;27;20612;-44
2022/05/06 12:05:29;;;;;;;8.03;6.03;;;21.60;47.90;;;;;;5082995;28;20476;-43
2022/05/06 12:07:54;;;;;;;6.60;5.57;;;22.70;45.60;;;;;;5078922;28;20477;-42
2022/05/06 12:10:27;;;;;;;5.10;4.57;;;23.40;43.50;;;;;;5077796;28;20223;-45
2022/05/06 12:12:57;;;;;;;5.40;4.90;;;23.90;44.40;;;;;;5072086;28;20254;-42
2022/05/06 12:15:43;;;;;;;6.13;5.53;;;24.30;43.00;;;;;;5085418;28;20819;-42
2022/05/06 12:18:21;;;;;;;6.53;6.03;;;24.30;41.60;;;;;;5077169;28;20932;-42
2022/05/06 12:20:47;;;;;;;6.70;5.60;;;24.40;40.90;;;;;;5083767;28;20441;-42
2022/05/06 12:23:14;;;;;;;8.90;5.80;;;24.40;40.20;;;;;;5069998;28;20792;-42
2022/05/06 12:25:41;;;;;;;7.10;6.50;;;24.50;41.10;;;;;;5080623;28;20609;-43
2022/05/06 12:28:15;;;;;;;6.20;5.60;;;24.40;40.80;;;;;;5084330;28;20518;-42
2022/05/06 12:30:42;;;;;;;5.80;5.30;;;24.50;40.90;;;;;;5076614;28;20463;-43
2022/05/06 12:33:07;;;;;;;6.17;5.57;;;24.60;41.60;;;;;;5078939;28;20445;-44
2022/05/06 12:35:56;;;;;;;6.20;5.63;;;24.70;41.30;;;;;;5078327;28;20804;-43
2022/05/06 12:38:46;;;;;;;7.73;6.37;;;24.80;40.30;;;;;;5077931;28;20184;-43
2022/05/06 12:41:23;;;;;;;11.27;6.30;;;24.90;41.40;;;;;;5057243;28;21059;-44
2022/05/06 12:43:49;;;;;;;6.20;5.40;;;24.80;39.90;;;;;;5072006;28;20457;-44
2022/05/06 12:46:33;;;;;;;8.00;5.80;;;24.70;41.30;;;;;;5075116;28;21947;-46
2022/05/06 12:51:45;;;;;;;6.10;5.50;;;24.60;38.50;;;;;;5065049;28;20524;-43
2022/05/06 12:54:11;;;;;;;5.90;5.30;;;24.60;39.10;;;;;;5068501;28;20502;-44
2022/05/06 12:56:38;;;;;;;6.07;5.57;;;24.80;40.20;;;;;;5076134;28;20924;-43
2022/05/06 12:59:04;;;;;;;7.30;5.80;;;24.80;40.10;;;;;;5073069;28;20442;-45
2022/05/06 13:01:30;;;;;;;6.87;5.70;;;24.80;39.00;;;;;;5072659;28;20547;-44
2022/05/06 13:03:56;;;;;;;7.53;5.70;;;24.80;39.50;;;;;;5076659;28;20449;-45
2022/05/06 13:06:22;;;;;;;6.23;5.63;;;25.00;40.20;;;;;;5075542;28;20688;-43
2022/05/06 13:08:47;;;;;;;6.33;5.73;;;25.20;40.00;;;;;;5075707;28;20201;-43
2022/05/06 13:11:13;;;;;;;5.53;5.03;;;25.30;40.00;;;;;;5064237;28;20614;-45
2022/05/06 13:13:38;;;;;;;5.53;4.93;;;25.20;37.70;;;;;;5052876;28;20203;-44
2022/05/06 13:16:04;;;;;;;5.40;5.00;;;25.20;37.80;;;;;;5048035;28;20207;-45
2022/05/06 13:18:32;;;;;;;8.60;5.13;;;25.20;38.10;;;;;;5067343;28;20196;-46
2022/05/06 13:20:58;;;;;;;6.40;5.80;;;25.30;39.40;;;;;;5050798;28;20664;-44
2022/05/06 13:23:24;;;;;;;5.77;5.23;;;25.30;37.60;;;;;;5049652;28;20499;-44
2022/05/06 13:25:49;;;;;;;6.13;5.57;;;25.20;37.70;;;;;;5056477;28;20670;-45
2022/05/06 13:28:16;;;;;;;6.00;5.43;;;25.30;39.50;;;;;;5055441;28;20222;-44
2022/05/06 13:30:41;;;;;;;5.53;5.03;;;25.30;39.80;;;;;;5080996;28;20818;-44
2022/05/06 13:33:07;;;;;;;6.23;5.73;;;25.20;38.00;;;;;;5067462;28;20500;-44
2022/05/06 13:35:33;;;;;;;6.37;5.77;;;25.10;39.20;;;;;;5052866;28;20196;-46
2022/05/06 13:37:59;;;;;;;5.70;5.10;;;25.00;39.70;;;;;;5067155;28;20274;-44
2022/05/06 13:40:25;;;;;;;5.20;4.80;;;25.00;38.70;;;;;;5063972;28;20227;-45
2022/05/06 13:42:51;;;;;;;7.60;6.67;;;25.10;39.00;;;;;;5067137;28;20472;-44
2022/05/06 13:45:17;;;;;;;9.07;7.30;;;25.00;38.40;;;;;;5045029;28;20503;-44
2022/05/06 13:47:43;;;;;;;6.07;5.50;;;24.80;37.40;;;;;;5049813;28;20793;-44
2022/05/06 13:50:09;;;;;;;5.67;5.23;;;24.90;38.50;;;;;;5060538;28;20203;-47
2022/05/06 13:52:35;;;;;;;7.93;5.73;;;24.90;38.00;;;;;;5047485;28;20696;-44
2022/05/06 13:55:05;;;;;;;6.80;6.10;;;24.90;38.50;;;;;;5050254;28;20541;-44
2022/05/06 14:00:20;;;;;;;6.53;5.77;;;25.10;39.90;;;;;;5054809;28;20465;-50
2022/05/06 14:02:46;;;;;;;5.73;5.30;;;25.20;39.00;;;;;;5048102;28;20482;-46
2022/05/06 14:05:12;;;;;;;7.43;5.00;;;25.30;40.00;;;;;;5058775;28;20481;-46
2022/05/06 14:07:38;;;;;;;6.13;5.53;;;25.30;40.00;;;;;;5070086;28;20464;-43
2022/05/06 14:10:04;;;;;;;6.20;5.30;;;25.20;38.00;;;;;;5055556;28;20196;-43
2022/05/06 14:12:31;;;;;;;6.27;5.23;;;24.90;37.40;;;;;;5052552;28;20230;-45
2022/05/06 14:14:57;;;;;;;7.33;5.13;;;24.70;38.50;;;;;;5058281;28;20941;-44
2022/05/06 14:17:23;;;;;;;5.97;5.00;;;24.80;38.60;;;;;;5057296;28;20443;-44
2022/05/06 14:19:48;;;;;;;6.03;5.43;;;25.00;39.80;;;;;;5055152;28;20192;-43
2022/05/06 14:22:14;;;;;;;5.80;5.17;;;25.00;39.60;;;;;;5052084;28;20443;-44
2022/05/06 14:24:45;;;;;;;7.37;5.40;;;25.10;39.10;;;;;;5056282;28;20239;-43
2022/05/06 14:27:17;;;;;;;6.60;5.80;;;25.00;38.50;;;;;;5064866;28;20964;-44
2022/05/06 14:29:44;;;;;;;6.10;5.60;;;25.00;38.70;;;;;;5054177;28;20469;-43